Time;durP1;ratioP1;P1;durP2;ratioP2;P2;SDS_P1;SDS_P2;PMS_P1;PMS_P2;Temp;Humidity;BMP_temperature;BMP_pressure;BME280_temperature;BME280_humidity;BME280_pressure;Samples;Min_cycle;Max_cycle;Signal;HPM_P1;HPM_P2
2023/01/31 07:10:53;;;;;;;;;17.00;13.00;;;;;4.46;100.00;102707.03;5904058;23;46790;-65
2023/01/31 07:13:21;;;;;;;;;16.00;10.50;;;;;4.97;100.00;102775.91;4932915;28;51005;-75
2023/01/31 07:15:46;;;;;;;;;17.00;14.25;;;;;2.78;100.00;102422.97;4932020;28;51537;-67
2023/01/31 07:18:12;;;;;;;;;16.00;12.75;;;;;4.50;100.00;102671.75;4950120;28;49488;-68
2023/01/31 07:20:41;;;;;;;;;13.00;10.00;;;;;4.46;100.00;102657.63;4950132;28;49382;-73
2023/01/31 07:23:07;;;;;;;;;9.00;9.00;;;;;5.04;100.00;102746.94;4935763;28;49946;-69
2023/01/31 07:25:34;;;;;;;;;12.25;11.75;;;;;4.83;100.00;102721.13;4932477;28;49812;-68
2023/01/31 07:28:03;;;;;;;;;11.75;10.00;;;;;4.86;100.00;102721.34;4932714;28;49603;-68
2023/01/31 07:30:29;;;;;;;;;6.00;6.00;;;;;5.12;100.00;102753.63;4933728;28;49758;-69
2023/01/31 07:32:55;;;;;;;;;15.50;10.00;;;;;4.52;100.00;102639.84;4933169;28;50053;-69
2023/01/31 07:35:21;;;;;;;;;13.00;10.50;;;;;5.14;100.00;102757.25;4932768;28;50376;-75
2023/01/31 07:37:46;;;;;;;;;8.75;8.75;;;;;4.67;100.00;102670.41;4933353;28;49955;-74
2023/01/31 07:40:14;;;;;;;;;12.00;9.50;;;;;4.74;100.00;102677.91;4933347;28;50307;-69
2023/01/31 07:42:40;;;;;;;;;12.00;10.00;;;;;4.73;100.00;102673.47;4933571;28;49886;-72
2023/01/31 07:45:08;;;;;;;;;13.50;11.50;;;;;5.25;100.00;102758.94;4932108;28;49822;-77
2023/01/31 07:47:33;;;;;;;;;10.00;10.00;;;;;4.78;100.00;102687.72;4931805;28;49800;-73
2023/01/31 07:49:59;;;;;;;;;9.00;7.50;;;;;5.24;100.00;102759.75;4933409;28;49723;-73
2023/01/31 07:52:24;;;;;;;;;15.50;9.00;;;;;4.33;100.00;102587.25;4933425;28;49749;-69
2023/01/31 07:54:49;;;;;;;;;9.25;8.50;;;;;4.38;100.00;102611.91;4932381;28;64144;-76
2023/01/31 07:57:16;;;;;;;;;11.00;8.00;;;;;4.91;100.00;102713.88;4932783;28;49797;-70
2023/01/31 07:59:43;;;;;;;;;11.50;9.25;;;;;5.00;100.00;102709.34;4931664;28;49842;-77
2023/01/31 08:04:56;;;;;;;;;8.50;5.25;;;;;5.38;100.00;102761.66;4932885;28;49937;-78
2023/01/31 08:07:21;;;;;;;;;9.25;8.50;;;;;5.17;100.00;102721.91;4932880;28;49731;-72
2023/01/31 08:09:49;;;;;;;;;9.50;9.00;;;;;4.88;100.00;102661.59;4932016;28;49827;-74
2023/01/31 08:12:15;;;;;;;;;12.00;8.25;;;;;5.41;100.00;102761.91;4931260;28;49889;-76
2023/01/31 08:14:41;;;;;;;;;10.25;8.75;;;;;5.46;100.00;102738.78;4932206;28;51994;-73
2023/01/31 08:17:07;;;;;;;;;10.25;8.25;;;;;5.07;100.00;102658.66;4931171;28;50202;-73
2023/01/31 08:19:33;;;;;;;;;7.75;7.75;;;;;5.22;100.00;102688.44;4932911;28;49769;-70
2023/01/31 08:21:59;;;;;;;;;12.00;10.50;;;;;4.95;100.00;102652.56;4932953;28;49651;-72
2023/01/31 08:24:24;;;;;;;;;7.50;7.50;;;;;4.72;100.00;102564.97;4932530;28;49723;-75
2023/01/31 08:26:50;;;;;;;;;8.25;8.25;;;;;5.70;100.00;102734.44;4932216;28;49828;-75
2023/01/31 08:29:15;;;;;;;;;10.00;8.75;;;;;6.00;100.00;102777.47;4932642;28;49830;-70
2023/01/31 08:31:42;;;;;;;;;9.75;9.75;;;;;6.03;100.00;102789.00;4932948;28;50097;-76
2023/01/31 08:34:07;;;;;;;;;7.50;5.75;;;;;5.73;100.00;102714.72;4932585;28;51185;-69
2023/01/31 08:36:34;;;;;;;;;9.75;7.00;;;;;5.81;100.00;102725.69;4932760;28;49782;-69
2023/01/31 08:39:00;;;;;;;;;10.25;6.75;;;;;5.59;100.00;102684.16;4933507;28;49887;-69
2023/01/31 08:41:26;;;;;;;;;15.25;9.25;;;;;5.71;100.00;102710.19;4933109;28;50260;-75
2023/01/31 08:43:54;;;;;;;;;7.75;7.75;;;;;5.73;100.00;102719.94;4926137;28;50804;-74
2023/01/31 08:46:25;;;;;;;;;10.75;9.75;;;;;6.15;100.00;102798.50;4925638;28;50074;-73
2023/01/31 08:48:50;;;;;;;;;15.00;10.75;;;;;5.77;100.00;102728.84;4928687;28;50169;-71
2023/01/31 08:51:16;;;;;;;;;11.50;10.00;;;;;6.28;100.00;102793.38;4931468;28;49947;-73
2023/01/31 08:53:44;;;;;;;;;11.75;9.75;;;;;6.02;100.00;102732.44;4929610;28;51547;-73
2023/01/31 08:56:11;;;;;;;;;17.25;14.75;;;;;6.40;100.00;102786.41;4952709;28;49584;-72
2023/01/31 08:58:38;;;;;;;;;9.25;6.50;;;;;6.45;100.00;102787.59;4932327;28;49799;-73
2023/01/31 09:01:06;;;;;;;;;7.50;7.50;;;;;6.32;100.00;102751.03;4931120;28;49729;-72
2023/01/31 09:03:31;;;;;;;;;11.25;9.25;;;;;6.55;100.00;102796.97;4931915;28;50891;-74
2023/01/31 09:06:02;;;;;;;;;13.75;10.25;;;;;6.11;100.00;102710.44;4931970;28;49701;-73
2023/01/31 09:08:28;;;;;;;;;14.75;13.50;;;;;5.52;100.00;102588.13;4932336;28;49842;-77
2023/01/31 09:10:55;;;;;;;;;9.50;7.00;;;;;6.74;100.00;102773.97;4931907;28;49817;-63
2023/01/31 09:13:21;;;;;;;;;10.25;10.25;;;;;6.78;100.00;102768.16;4931997;28;49994;-69
2023/01/31 09:15:55;;;;;;;;;10.50;9.00;;;;;6.75;100.00;102760.09;4929275;28;49773;-70
2023/01/31 09:18:21;;;;;;;;;9.50;9.50;;;;;6.78;100.00;102747.28;4931660;28;49770;-68
2023/01/31 09:20:46;;;;;;;;;6.00;6.00;;;;;6.27;100.00;102658.50;4936620;28;57220;-71
2023/01/31 09:23:12;;;;;;;;;14.00;12.50;;;;;7.11;100.00;102790.41;4935403;28;57395;-68
2023/01/31 09:25:37;;;;;;;;;16.75;10.50;;;;;6.98;100.00;102760.78;4935745;28;49601;-70
2023/01/31 09:28:02;;;;;;;;;10.00;9.75;;;;;6.94;100.00;102746.59;4933243;28;49979;-68
2023/01/31 09:30:28;;;;;;;;;10.50;9.00;;;;;6.95;100.00;102747.47;4935666;28;49767;-71
2023/01/31 09:32:53;;;;;;;;;11.25;8.75;;;;;7.03;100.00;102762.88;4938118;28;50709;-69
2023/01/31 09:35:20;;;;;;;;;8.25;7.75;;;;;6.96;100.00;102755.44;4940970;28;49327;-71
2023/01/31 09:37:45;;;;;;;;;7.50;6.00;;;;;7.14;100.00;102760.97;4931559;28;49904;-75
2023/01/31 09:40:19;;;;;;;;;9.75;7.25;;;;;7.26;100.00;102781.81;4931873;28;49874;-75
2023/01/31 09:42:47;;;;;;;;;7.75;6.25;;;;;6.92;100.00;102713.34;4931312;28;49958;-72
2023/01/31 09:45:34;;;;;;;;;6.50;6.50;;;;;7.39;100.00;102802.69;4931570;28;49962;-69
2023/01/31 09:48:01;;;;;;;;;10.00;6.50;;;;;6.95;100.00;102705.72;4931765;28;50038;-78
2023/01/31 09:50:30;;;;;;;;;7.50;7.00;;;;;7.55;100.00;102805.53;4926523;28;49885;-74
2023/01/31 09:52:56;;;;;;;;;14.00;9.75;;;;;7.59;100.00;102806.63;4931218;28;50720;-75
2023/01/31 09:55:40;;;;;;;;;11.50;9.25;;;;;6.26;100.00;102570.63;4930868;28;49808;-71
2023/01/31 09:58:50;;;;;;;;;17.75;13.00;;;;;7.43;100.00;102760.28;4938386;28;49693;-70
2023/01/31 10:01:28;;;;;;;;;11.50;11.50;;;;;7.76;100.00;102800.78;4916716;28;49849;-68
2023/01/31 10:04:15;;;;;;;;;10.50;10.25;;;;;7.80;100.00;102796.63;4932255;28;49833;-68
2023/01/31 10:06:52;;;;;;;;;8.00;6.75;;;;;7.88;100.00;102804.19;4932116;28;49771;-71
2023/01/31 10:09:45;;;;;;;;;11.00;6.00;;;;;7.96;100.00;102797.72;4938429;28;49872;-69
2023/01/31 10:12:23;;;;;;;;;9.50;7.50;;;;;7.63;100.00;102749.44;4931747;28;49879;-68
2023/01/31 10:14:53;;;;;;;;;7.00;6.25;;;;;7.92;100.00;102779.16;4936391;28;50691;-68
2023/01/31 10:17:25;;;;;;;;;8.25;7.50;;;;;8.01;100.00;102791.09;4934815;28;49698;-71
2023/01/31 10:20:17;;;;;;;;;10.50;10.50;;;;;8.14;100.00;102790.16;4936329;28;49846;-71
2023/01/31 10:23:03;;;;;;;;;10.00;10.00;;;;;8.28;100.00;102791.00;4937341;28;49865;-75
2023/01/31 10:25:28;;;;;;;;;13.50;12.00;;;;;8.48;100.00;102800.13;4933566;28;49812;-77
2023/01/31 10:28:08;;;;;;;;;13.50;8.00;;;;;8.58;100.00;102808.63;4935554;28;49825;-73
2023/01/31 10:30:58;;;;;;;;;10.00;7.00;;;;;8.68;100.00;102796.09;4935410;28;49686;-70
2023/01/31 10:33:37;;;;;;;;;11.00;10.00;;;;;8.55;100.00;102763.94;4934690;28;50075;-74
2023/01/31 10:36:12;;;;;;;;;17.50;13.00;;;;;8.49;100.00;102732.19;4934256;28;49675;-70
2023/01/31 10:38:52;;;;;;;;;9.25;9.25;;;;;8.55;100.00;102742.09;4931231;28;49830;-78
2023/01/31 10:41:30;;;;;;;;;12.00;10.50;;;;;8.77;100.00;102765.22;4935613;28;50992;-69
2023/01/31 10:44:04;;;;;;;;;13.00;11.75;;;;;8.79;100.00;102761.00;4934201;28;49972;-75
2023/01/31 10:46:29;;;;;;;;;12.75;11.50;;;;;8.70;100.00;102739.50;4929577;28;51013;-70
2023/01/31 10:48:55;;;;;;;;;10.25;10.25;;;;;8.60;100.00;102728.50;4935829;28;52231;-70
2023/01/31 10:51:25;;;;;;;;;10.25;9.50;;;;;9.03;100.00;102793.88;4951427;28;49613;-76
2023/01/31 10:54:28;;;;;;;;;6.00;6.00;;;;;9.07;100.00;102781.88;4950461;28;49764;-70
2023/01/31 10:56:54;;;;;;;;;15.75;14.50;;;;;8.90;100.00;102767.78;4951328;28;49549;-77
2023/01/31 10:59:36;;;;;;;;;10.00;10.00;;;;;8.99;100.00;102778.81;4951129;28;49624;-69
2023/01/31 11:02:03;;;;;;;;;10.50;10.50;;;;;8.74;100.00;102710.06;4950551;28;49463;-68
2023/01/31 11:04:39;;;;;;;;;13.00;12.75;;;;;8.80;100.00;102723.53;4951892;28;49583;-72
2023/01/31 11:07:05;;;;;;;;;7.00;7.00;;;;;8.93;100.00;102736.53;4946040;28;49972;-74
2023/01/31 11:09:37;;;;;;;;;14.50;11.00;;;;;9.04;100.00;102742.41;4950349;28;49585;-72
2023/01/31 11:12:05;;;;;;;;;10.00;8.00;;;;;9.05;100.00;102738.94;4950763;28;49562;-71
2023/01/31 11:14:30;;;;;;;;;10.75;10.50;;;;;8.44;100.00;102626.28;4946395;28;49556;-72
2023/01/31 11:17:05;;;;;;;;;8.50;7.25;;;;;9.26;100.00;102750.69;4950489;28;50123;-67
2023/01/31 11:19:39;;;;;;;;;7.25;5.50;;;;;9.38;100.00;102746.16;4947920;28;49672;-73
2023/01/31 11:22:05;;;;;;;;;6.00;6.00;;;;;9.44;100.00;102730.75;4949994;28;49621;-75
2023/01/31 11:24:33;;;;;;;;;7.00;7.00;;;;;9.50;100.00;102713.59;4949556;28;49523;-71
2023/01/31 11:27:01;;;;;;;;;10.50;8.00;;;;;9.69;100.00;102725.19;4949249;28;50741;-69
2023/01/31 11:29:42;;;;;;;;;7.50;6.75;;;;;9.42;100.00;102639.75;4948365;28;50018;-69
2023/01/31 11:32:20;;;;;;;;;7.00;7.00;;;;;9.74;100.00;102699.19;4948877;28;49720;-69
2023/01/31 11:35:03;;;;;;;;;5.75;5.50;;;;;9.92;100.00;102715.94;4948308;28;50266;-71
2023/01/31 11:37:28;;;;;;;;;7.25;6.00;;;;;9.81;100.00;102671.59;4944132;28;50434;-67
2023/01/31 11:40:13;;;;;;;;;7.25;7.00;;;;;10.15;100.00;102725.09;4930609;28;49767;-68
2023/01/31 11:42:53;;;;;;;;;8.00;6.75;;;;;10.27;100.00;102694.25;4932740;28;49881;-68
2023/01/31 11:45:22;;;;;;;;;8.50;8.50;;;;;10.04;100.00;102624.78;4934239;28;49858;-68
2023/01/31 11:47:53;;;;;;;;;6.50;6.50;;;;;10.52;100.00;102700.81;4947584;28;49990;-68
2023/01/31 11:51:04;;;;;;;;;9.25;7.75;;;;;10.48;100.00;102702.34;4940031;28;49963;-69
2023/01/31 11:53:42;;;;;;;;;5.00;5.00;;;;;10.50;100.00;102707.69;4934297;28;49726;-70
2023/01/31 11:56:17;;;;;;;;;6.75;6.75;;;;;10.00;100.00;102627.16;4935163;28;49730;-68
2023/01/31 11:58:46;;;;;;;;;7.50;6.00;;;;;10.43;100.00;102700.31;4932573;28;50708;-68
2023/01/31 12:01:13;;;;;;;;;8.25;8.00;;;;;10.38;100.00;102696.53;4933109;28;49711;-69
2023/01/31 12:03:45;;;;;;;;;10.50;7.75;;;;;9.87;100.00;102594.13;4931607;28;50348;-68
2023/01/31 12:06:26;;;;;;;;;12.75;6.00;;;;;10.39;100.00;102698.34;4933168;28;49720;-69
2023/01/31 12:08:56;;;;;;;;;6.25;6.25;;;;;9.95;100.00;102612.91;4933285;28;50755;-70
2023/01/31 12:11:22;;;;;;;;;6.75;6.75;;;;;10.43;100.00;102700.31;4933771;28;49848;-73
2023/01/31 12:13:52;;;;;;;;;13.25;6.25;;;;;10.17;100.00;102643.78;4938897;28;49575;-77
2023/01/31 12:16:24;;;;;;;;;7.50;7.50;;;;;10.06;100.00;102609.13;4933205;28;49814;-79
2023/01/31 12:18:59;;;;;;;;;13.00;9.25;;;;;10.55;100.00;102677.31;4934175;28;50870;-70
2023/01/31 12:21:36;;;;;;;;;7.25;6.25;;;;;10.64;100.00;102677.78;4932670;28;49705;-74
2023/01/31 12:24:18;;;;;;;;;5.75;5.75;;;;;10.63;100.00;102669.84;4932230;28;49849;-70
2023/01/31 12:27:13;;;;;;;;;6.75;6.75;;;;;10.74;100.00;102677.44;4932716;28;50000;-68
2023/01/31 12:29:58;;;;;;;;;7.00;6.50;;;;;10.71;100.00;102657.97;4926056;28;50879;-74
2023/01/31 12:32:32;;;;;;;;;6.00;6.00;;;;;10.86;100.00;102657.03;4933761;28;50104;-70
2023/01/31 12:35:14;;;;;;;;;6.50;6.00;;;;;10.71;100.00;102606.38;4934338;28;49902;-69
2023/01/31 12:38:11;;;;;;;;;13.25;12.00;;;;;11.02;100.00;102647.28;4935138;28;49778;-78
2023/01/31 12:41:03;;;;;;;;;12.50;8.00;;;;;11.04;100.00;102643.88;4940453;28;50365;-75
2023/01/31 12:43:37;;;;;;;;;6.50;6.50;;;;;11.15;100.00;102639.16;4934158;28;50158;-75
2023/01/31 12:46:19;;;;;;;;;16.00;12.75;;;;;11.16;100.00;102639.22;4930893;28;49915;-69
2023/01/31 12:49:03;;;;;;;;;9.00;6.75;;;;;11.17;100.00;102626.97;4931093;28;49879;-69
2023/01/31 12:51:49;;;;;;;;;10.00;7.75;;;;;11.21;100.00;102621.06;4926837;28;51045;-69
2023/01/31 12:54:40;;;;;;;;;8.00;7.50;;;;;11.29;100.00;102618.75;4935683;28;49694;-69
2023/01/31 12:57:29;;;;;;;;;9.00;8.00;;;;;10.96;100.00;102550.63;4935725;28;49746;-79
2023/01/31 13:00:16;;;;;;;;;4.00;4.00;;;;;11.42;100.00;102622.06;4944785;28;50125;-70
2023/01/31 13:03:28;;;;;;;;;6.00;4.00;;;;;11.25;100.00;102585.28;4932177;28;49894;-72
2023/01/31 13:06:14;;;;;;;;;7.25;3.75;;;;;11.10;100.00;102609.13;4929817;28;49811;-70
2023/01/31 13:08:50;;;;;;;;;3.75;2.75;;;;;10.88;100.00;102591.41;4929014;28;49851;-69
2023/01/31 13:11:21;;;;;;;;;4.75;4.00;;;;;10.58;100.00;102557.56;4927891;28;49759;-78
2023/01/31 13:13:58;;;;;;;;;7.00;3.00;;;;;10.75;100.00;102599.53;4928844;28;51216;-77
2023/01/31 13:16:37;;;;;;;;;6.75;6.75;;;;;10.73;100.00;102588.94;4938911;28;49406;-79
2023/01/31 13:19:06;;;;;;;;;7.75;3.00;;;;;10.78;100.00;102589.16;4948589;28;49597;-68
2023/01/31 13:21:42;;;;;;;;;5.75;5.75;;;;;10.34;100.00;102516.97;4947702;28;49877;-69
2023/01/31 13:24:39;;;;;;;;;3.50;3.50;;;;;10.81;100.00;102590.22;4946980;28;49876;-70
2023/01/31 13:27:16;;;;;;;;;4.00;3.00;;;;;10.95;100.00;102595.25;4940487;28;49479;-71
2023/01/31 13:29:55;;;;;;;;;3.50;3.50;;;;;10.79;100.00;102534.06;4946995;28;49647;-72
2023/01/31 13:32:33;;;;;;;;;3.75;3.75;;;;;11.15;100.00;102571.72;4947059;28;49560;-66
2023/01/31 13:35:17;;;;;;;;;6.00;2.50;;;;;11.10;100.00;102557.47;4934873;28;49841;-76
2023/01/31 13:37:47;;;;;;;;;2.00;2.00;;;;;10.95;100.00;102561.09;4923716;28;49923;-76
2023/01/31 13:40:37;;;;;;;;;8.00;1.25;;;;;11.00;100.00;102557.84;4921054;28;49899;-69
2023/01/31 13:43:12;;;;;;;;;3.00;3.00;;;;;10.84;100.00;102527.31;4928806;28;50105;-68
2023/01/31 13:46:01;;;;;;;;;3.75;3.75;;;;;11.10;100.00;102567.09;4925202;28;51037;-69
2023/01/31 13:48:44;;;;;;;;;3.75;2.50;;;;;10.87;100.00;102521.28;4929807;28;49875;-71
2023/01/31 13:51:16;;;;;;;;;4.25;3.00;;;;;11.10;100.00;102569.72;4932002;28;50093;-70
2023/01/31 13:53:54;;;;;;;;;6.25;2.75;;;;;10.94;100.00;102536.53;4932970;28;49806;-75
2023/01/31 13:56:28;;;;;;;;;2.25;2.25;;;;;11.00;100.00;102534.22;4931885;28;50859;-82
2023/01/31 13:58:55;;;;;;;;;5.00;2.00;;;;;11.11;100.00;102529.44;4928652;28;49766;-71
2023/01/31 14:01:23;;;;;;;;;2.25;2.25;;;;;11.13;100.00;102551.44;4935051;28;49921;-76
2023/01/31 14:04:11;;;;;;;;;2.00;2.00;;;;;11.22;100.00;102569.38;4932621;28;50278;-74
2023/01/31 14:06:51;;;;;;;;;3.25;2.00;;;;;11.17;100.00;102563.88;4934752;28;51989;-72
2023/01/31 14:09:24;;;;;;;;;3.00;3.00;;;;;11.13;100.00;102565.47;4932924;28;49841;-70
2023/01/31 14:11:50;;;;;;;;;5.50;4.00;;;;;11.05;100.00;102571.19;4935346;28;49824;-75
2023/01/31 14:14:37;;;;;;;;;8.75;4.50;;;;;11.12;100.00;102579.47;4935458;28;50044;-77
2023/01/31 14:17:28;;;;;;;;;7.25;3.00;;;;;11.13;100.00;102583.88;4934199;28;50535;-76
2023/01/31 14:19:56;;;;;;;;;2.50;2.50;;;;;11.07;100.00;102583.59;4933052;28;49772;-69
2023/01/31 14:22:30;;;;;;;;;2.50;2.50;;;;;11.02;100.00;102587.72;4934655;28;49802;-70
2023/01/31 14:25:01;;;;;;;;;1.25;1.25;;;;;11.02;100.00;102587.72;4934198;28;50170;-75
2023/01/31 14:27:32;;;;;;;;;6.00;5.25;;;;;10.98;100.00;102590.13;4935204;28;50801;-84
2023/01/31 14:30:03;;;;;;;;;6.00;3.50;;;;;10.92;100.00;102587.22;4934383;28;49896;-68
2023/01/31 14:32:34;;;;;;;;;3.75;3.00;;;;;10.59;100.00;102532.19;4934025;28;49955;-68
2023/01/31 14:35:23;;;;;;;;;6.25;3.75;;;;;10.65;100.00;102558.78;4934262;28;49711;-68
2023/01/31 14:38:15;;;;;;;;;3.00;2.25;;;;;10.83;100.00;102585.03;4919598;28;50849;-67
2023/01/31 14:40:58;;;;;;;;;4.50;4.00;;;;;10.84;100.00;102595.63;4933653;28;49710;-68
2023/01/31 14:43:49;;;;;;;;;3.00;3.00;;;;;10.86;100.00;102596.59;4935111;28;49748;-68
2023/01/31 14:46:50;;;;;;;;;3.00;1.50;;;;;10.63;100.00;102562.16;4934799;28;50079;-67
2023/01/31 14:49:58;;;;;;;;;6.00;3.00;;;;;10.79;100.00;102589.22;4934059;28;51000;-71
2023/01/31 14:52:58;;;;;;;;;3.25;3.25;;;;;10.91;100.00;102596.84;4929299;28;49837;-72
2023/01/31 14:55:41;;;;;;;;;4.00;3.00;;;;;10.86;100.00;102596.59;4899689;28;50260;-66
2023/01/31 14:58:17;;;;;;;;;3.00;3.00;;;;;10.89;100.00;102583.59;4935154;28;49991;-66
2023/01/31 15:00:50;;;;;;;;;5.75;4.00;;;;;10.72;100.00;102566.13;4934486;28;49826;-71
2023/01/31 15:03:26;;;;;;;;;6.75;2.25;;;;;10.70;100.00;102566.88;4933813;28;49884;-67
2023/01/31 15:06:07;;;;;;;;;5.00;3.75;;;;;10.95;100.00;102601.41;4932970;28;49640;-66
2023/01/31 15:08:45;;;;;;;;;3.00;3.00;;;;;10.74;100.00;102566.22;4934126;28;49908;-67
2023/01/31 15:11:40;;;;;;;;;3.50;2.75;;;;;10.91;100.00;102602.09;4927327;28;49865;-66
2023/01/31 15:14:28;;;;;;;;;4.00;2.00;;;;;10.92;100.00;102603.88;4933842;28;49867;-67
2023/01/31 15:17:23;;;;;;;;;3.50;3.50;;;;;10.46;100.00;102516.69;4933687;28;49972;-67
2023/01/31 15:19:52;;;;;;;;;4.50;2.25;;;;;10.99;100.00;102605.06;4930289;28;49682;-66
2023/01/31 15:22:20;;;;;;;;;6.25;3.50;;;;;10.94;100.00;102603.97;4933549;28;49945;-67
2023/01/31 15:24:50;;;;;;;;;6.25;6.25;;;;;10.51;100.00;102530.91;4933680;28;49867;-67
2023/01/31 15:27:21;;;;;;;;;6.75;5.50;;;;;10.92;100.00;102600.34;4933568;28;49802;-71
2023/01/31 15:29:58;;;;;;;;;2.50;2.25;;;;;10.48;100.00;102539.56;4933828;28;50040;-68
2023/01/31 15:32:39;;;;;;;;;6.00;4.00;;;;;10.69;100.00;102586.97;4933334;28;50951;-67
2023/01/31 15:35:23;;;;;;;;;8.00;6.75;;;;;10.82;100.00;102597.28;4933462;28;50010;-67
2023/01/31 15:38:00;;;;;;;;;6.75;3.25;;;;;10.31;100.00;102525.59;4933690;28;49908;-67
2023/01/31 15:40:27;;;;;;;;;1.25;1.25;;;;;10.66;100.00;102581.59;4932223;28;49872;-67
2023/01/31 15:42:53;;;;;;;;;7.75;7.50;;;;;10.82;100.00;102605.16;4933164;28;50912;-67
2023/01/31 15:45:24;;;;;;;;;9.00;6.50;;;;;10.51;100.00;102531.81;4933101;28;49729;-67
2023/01/31 15:48:01;;;;;;;;;9.00;8.00;;;;;10.53;100.00;102545.94;4933207;28;50005;-66
2023/01/31 15:50:31;;;;;;;;;11.25;7.50;;;;;10.56;100.00;102534.69;4933633;28;50061;-67
2023/01/31 15:53:05;;;;;;;;;8.25;6.00;;;;;10.87;100.00;102598.38;4931758;28;52530;-72
2023/01/31 15:55:34;;;;;;;;;8.75;6.25;;;;;10.05;100.00;102452.50;4931666;28;49931;-67
2023/01/31 15:58:01;;;;;;;;;7.25;6.00;;;;;10.84;100.00;102597.34;4932044;28;50032;-67
2023/01/31 16:00:31;;;;;;;;;6.25;4.00;;;;;10.53;100.00;102539.78;4933115;28;50115;-67
2023/01/31 16:03:01;;;;;;;;;6.75;6.50;;;;;10.57;100.00;102553.13;4933100;28;51546;-76
2023/01/31 16:05:30;;;;;;;;;7.75;5.50;;;;;10.58;100.00;102556.66;4932795;28;49854;-64
2023/01/31 16:07:57;;;;;;;;;3.75;3.50;;;;;10.61;100.00;102575.19;4931877;28;49742;-63
2023/01/31 16:10:25;;;;;;;;;7.25;7.25;;;;;10.59;100.00;102585.63;4932080;28;50101;-63
2023/01/31 16:12:52;;;;;;;;;7.00;4.50;;;;;10.55;100.00;102575.81;4931538;28;49769;-71
2023/01/31 16:15:30;;;;;;;;;8.25;5.50;;;;;10.27;100.00;102536.75;4935066;28;50219;-69
2023/01/31 16:18:00;;;;;;;;;8.00;4.75;;;;;10.53;100.00;102579.19;4931706;28;50085;-67
2023/01/31 16:20:47;;;;;;;;;7.00;6.00;;;;;10.56;100.00;102590.72;4931794;28;49754;-63
2023/01/31 16:23:28;;;;;;;;;6.25;6.25;;;;;10.38;100.00;102575.78;4932362;28;50817;-69
2023/01/31 16:26:13;;;;;;;;;7.00;7.00;;;;;10.41;100.00;102579.44;4934059;28;49880;-68
2023/01/31 16:28:44;;;;;;;;;7.50;7.50;;;;;10.35;100.00;102567.75;4939341;28;49968;-68
2023/01/31 16:31:15;;;;;;;;;22.50;14.75;;;;;10.34;100.00;102568.59;4935205;28;50245;-66
2023/01/31 16:33:54;;;;;;;;;8.25;8.25;;;;;10.15;100.00;102553.59;4928928;28;50905;-65
2023/01/31 16:36:26;;;;;;;;;3.75;3.75;;;;;10.36;100.00;102601.97;4930970;28;49707;-66
2023/01/31 16:39:26;;;;;;;;;9.25;8.50;;;;;10.41;100.00;102608.31;4931174;28;49953;-71
2023/01/31 16:41:54;;;;;;;;;7.50;4.50;;;;;10.06;100.00;102540.91;4930646;28;50165;-72
2023/01/31 16:44:25;;;;;;;;;8.50;8.50;;;;;10.24;100.00;102577.72;4932145;28;50008;-73
2023/01/31 16:46:52;;;;;;;;;9.75;6.75;;;;;10.33;100.00;102607.06;4930212;28;49774;-67
2023/01/31 16:49:22;;;;;;;;;8.00;6.75;;;;;10.35;100.00;102608.03;4930823;28;49909;-65
2023/01/31 16:51:49;;;;;;;;;8.50;7.25;;;;;10.29;100.00;102613.88;4930211;28;49799;-67
2023/01/31 16:54:29;;;;;;;;;9.00;6.00;;;;;10.36;100.00;102601.97;4933352;28;49887;-73
2023/01/31 16:57:00;;;;;;;;;6.25;6.00;;;;;10.37;100.00;102606.38;4936479;28;49780;-77
2023/01/31 16:59:31;;;;;;;;;8.50;7.50;;;;;10.36;100.00;102601.97;4933489;28;50035;-73
2023/01/31 17:02:11;;;;;;;;;6.50;6.25;;;;;10.29;100.00;102590.22;4932493;28;49856;-76
2023/01/31 17:04:40;;;;;;;;;6.00;6.00;;;;;10.34;100.00;102600.09;4945336;28;51166;-69
2023/01/31 17:07:33;;;;;;;;;6.75;6.00;;;;;10.32;100.00;102594.72;4941507;28;49969;-70
2023/01/31 17:10:03;;;;;;;;;8.75;6.00;;;;;10.24;100.00;102583.88;4938279;28;49736;-77
2023/01/31 17:12:33;;;;;;;;;8.25;5.50;;;;;10.22;100.00;102589.84;4944049;28;49585;-67
2023/01/31 17:14:59;;;;;;;;;9.75;7.00;;;;;10.14;100.00;102591.16;4931828;28;49965;-75
2023/01/31 17:17:28;;;;;;;;;12.25;7.50;;;;;9.96;100.00;102544.78;4931777;28;49891;-66
2023/01/31 17:19:54;;;;;;;;;12.00;8.00;;;;;9.98;100.00;102585.09;4931768;28;49886;-72
2023/01/31 17:22:21;;;;;;;;;7.00;6.00;;;;;10.01;100.00;102553.75;4932249;28;49739;-74
2023/01/31 17:24:49;;;;;;;;;8.00;6.00;;;;;10.01;100.00;102571.22;4928297;28;49860;-71
2023/01/31 17:27:17;;;;;;;;;7.50;7.50;;;;;10.08;100.00;102588.22;4930074;28;50245;-71
2023/01/31 17:29:46;;;;;;;;;7.00;6.00;;;;;10.06;100.00;102596.00;4928327;28;49907;-72
2023/01/31 17:32:13;;;;;;;;;5.50;5.50;;;;;10.11;100.00;102611.97;4931148;28;49668;-63
2023/01/31 17:34:39;;;;;;;;;6.75;5.50;;;;;10.09;100.00;102617.16;4934178;28;50185;-65
2023/01/31 17:37:05;;;;;;;;;8.00;6.00;;;;;9.97;100.00;102591.19;4930688;28;49731;-65
2023/01/31 17:39:30;;;;;;;;;7.25;6.00;;;;;9.86;100.00;102573.06;4931253;28;49694;-66
2023/01/31 17:41:55;;;;;;;;;10.75;8.50;;;;;9.65;100.00;102531.78;4930268;28;49635;-66
2023/01/31 17:44:21;;;;;;;;;7.75;6.75;;;;;9.93;100.00;102590.91;4927938;28;50237;-69
2023/01/31 17:46:46;;;;;;;;;10.25;8.25;;;;;10.00;100.00;102586.06;4930344;28;49805;-78
2023/01/31 17:49:12;;;;;;;;;12.00;8.75;;;;;9.74;100.00;102553.22;4930143;28;49893;-72
2023/01/31 17:51:37;;;;;;;;;7.25;6.50;;;;;9.82;100.00;102555.34;4930361;28;49838;-70
2023/01/31 17:54:02;;;;;;;;;4.75;4.75;;;;;10.06;100.00;102587.22;4928597;28;51698;-65
2023/01/31 17:56:28;;;;;;;;;7.00;7.00;;;;;9.81;100.00;102535.19;4929150;28;50007;-68
2023/01/31 17:58:53;;;;;;;;;9.00;8.00;;;;;9.91;100.00;102558.47;4931703;28;49584;-70
2023/01/31 18:01:18;;;;;;;;;11.75;8.75;;;;;9.93;100.00;102573.44;4931268;28;52860;-66
2023/01/31 18:03:44;;;;;;;;;10.50;7.75;;;;;9.88;100.00;102571.44;4931622;28;49723;-77
2023/01/31 18:06:09;;;;;;;;;7.50;7.50;;;;;9.77;100.00;102535.88;4931531;28;49802;-68
2023/01/31 18:08:35;;;;;;;;;10.50;8.75;;;;;10.13;100.00;102584.06;4931731;28;49810;-74
2023/01/31 18:11:09;;;;;;;;;10.75;6.50;;;;;10.05;100.00;102588.97;4931338;28;49727;-75
2023/01/31 18:13:36;;;;;;;;;6.25;6.25;;;;;10.02;100.00;102588.78;4931441;28;50836;-74
2023/01/31 18:16:07;;;;;;;;;8.00;8.00;;;;;9.70;100.00;102540.78;4931390;28;49893;-75
2023/01/31 18:18:35;;;;;;;;;11.75;9.00;;;;;9.55;100.00;102499.72;4931847;28;49956;-80
2023/01/31 18:21:01;;;;;;;;;8.75;6.50;;;;;9.97;100.00;102582.41;4925842;28;49712;-73
2023/01/31 18:23:27;;;;;;;;;7.75;7.75;;;;;9.62;100.00;102520.22;4929989;28;52375;-73
2023/01/31 18:25:52;;;;;;;;;11.25;11.00;;;;;9.79;100.00;102560.44;4930731;28;49811;-77
2023/01/31 18:28:17;;;;;;;;;9.75;8.00;;;;;9.79;100.00;102570.94;4930755;28;49742;-79
2023/01/31 18:30:43;;;;;;;;;17.50;13.25;;;;;9.95;100.00;102587.56;4934464;28;49900;-78
2023/01/31 18:33:08;;;;;;;;;10.50;10.50;;;;;9.74;100.00;102547.97;4934461;28;51020;-78
2023/01/31 18:35:34;;;;;;;;;7.25;7.25;;;;;9.50;100.00;102498.59;4934501;28;49835;-79
2023/01/31 18:37:59;;;;;;;;;10.75;9.00;;;;;9.74;100.00;102547.97;4939880;28;50211;-80
2023/01/31 18:40:24;;;;;;;;;12.25;11.00;;;;;9.94;100.00;102598.91;4939190;28;49782;-75
2023/01/31 18:42:49;;;;;;;;;11.50;10.75;;;;;9.59;100.00;102528.84;4948319;28;52498;-72
2023/01/31 18:45:15;;;;;;;;;7.75;7.75;;;;;9.65;100.00;102544.91;4940810;28;53968;-71
2023/01/31 18:47:40;;;;;;;;;7.50;6.75;;;;;9.69;100.00;102551.19;4949398;28;49324;-69
2023/01/31 18:50:06;;;;;;;;;20.75;14.25;;;;;9.72;100.00;102557.50;4950222;28;52156;-71
2023/01/31 18:52:32;;;;;;;;;7.75;7.25;;;;;9.95;100.00;102600.69;4948907;28;49909;-71
2023/01/31 18:54:58;;;;;;;;;9.50;9.00;;;;;10.01;100.00;102608.88;4951255;28;49820;-71
2023/01/31 18:57:23;;;;;;;;;13.75;11.25;;;;;9.72;100.00;102553.97;4951410;28;49214;-69